sensor_id;sensor_type;location;lat;lon;timestamp;temperature;humidity
16408;DHT22;8313;49.894;8.084;2022-12-29T00:02:08;9.60;99.90
16408;DHT22;8313;49.894;8.084;2022-12-29T00:04:34;9.60;99.90
16408;DHT22;8313;49.894;8.084;2022-12-29T00:07:00;9.60;99.90
16408;DHT22;8313;49.894;8.084;2022-12-29T00:09:26;9.70;99.90
16408;DHT22;8313;49.894;8.084;2022-12-29T00:11:52;9.70;99.90
16408;DHT22;8313;49.894;8.084;2022-12-29T00:14:19;9.70;99.90
16408;DHT22;8313;49.894;8.084;2022-12-29T00:17:03;9.70;99.90
16408;DHT22;8313;49.894;8.084;2022-12-29T00:19:29;9.70;99.90
16408;DHT22;8313;49.894;8.084;2022-12-29T00:22:14;9.70;99.90
16408;DHT22;8313;49.894;8.084;2022-12-29T00:24:59;9.80;99.90
16408;DHT22;8313;49.894;8.084;2022-12-29T00:27:34;9.80;99.90
16408;DHT22;8313;49.894;8.084;2022-12-29T00:30:21;9.80;99.90
16408;DHT22;8313;49.894;8.084;2022-12-29T00:33:20;9.80;99.90
16408;DHT22;8313;49.894;8.084;2022-12-29T00:36:06;9.80;99.90
16408;DHT22;8313;49.894;8.084;2022-12-29T00:38:37;9.70;99.90
16408;DHT22;8313;49.894;8.084;2022-12-29T00:41:24;9.80;99.90
16408;DHT22;8313;49.894;8.084;2022-12-29T00:44:11;9.80;99.90
16408;DHT22;8313;49.894;8.084;2022-12-29T00:46:41;9.90;99.90
16408;DHT22;8313;49.894;8.084;2022-12-29T00:49:09;9.80;99.90
16408;DHT22;8313;49.894;8.084;2022-12-29T00:51:55;9.80;99.90
16408;DHT22;8313;49.894;8.084;2022-12-29T00:54:21;9.80;99.90
16408;DHT22;8313;49.894;8.084;2022-12-29T00:56:49;9.80;99.90
16408;DHT22;8313;49.894;8.084;2022-12-29T00:59:16;9.90;99.90
16408;DHT22;8313;49.894;8.084;2022-12-29T01:01:43;9.80;99.90
16408;DHT22;8313;49.894;8.084;2022-12-29T01:04:10;9.90;99.90
16408;DHT22;8313;49.894;8.084;2022-12-29T01:06:38;9.90;99.90
16408;DHT22;8313;49.894;8.084;2022-12-29T01:09:04;9.90;99.90
16408;DHT22;8313;49.894;8.084;2022-12-29T01:11:49;9.90;99.90
16408;DHT22;8313;49.894;8.084;2022-12-29T01:14:16;9.90;99.90
16408;DHT22;8313;49.894;8.084;2022-12-29T01:16:42;9.90;99.90
16408;DHT22;8313;49.894;8.084;2022-12-29T01:19:08;9.90;99.90
16408;DHT22;8313;49.894;8.084;2022-12-29T01:21:34;9.90;99.90
16408;DHT22;8313;49.894;8.084;2022-12-29T01:24:00;9.80;99.90
16408;DHT22;8313;49.894;8.084;2022-12-29T01:26:25;9.90;99.90
16408;DHT22;8313;49.894;8.084;2022-12-29T01:28:51;9.80;99.90
16408;DHT22;8313;49.894;8.084;2022-12-29T01:31:17;9.80;99.90
16408;DHT22;8313;49.894;8.084;2022-12-29T01:33:43;9.80;99.90
16408;DHT22;8313;49.894;8.084;2022-12-29T01:36:12;9.90;99.90
16408;DHT22;8313;49.894;8.084;2022-12-29T01:38:38;9.90;99.90
16408;DHT22;8313;49.894;8.084;2022-12-29T01:41:06;9.90;99.90
16408;DHT22;8313;49.894;8.084;2022-12-29T01:49:12;9.90;99.90
16408;DHT22;8313;49.894;8.084;2022-12-29T01:51:50;9.90;99.90
16408;DHT22;8313;49.894;8.084;2022-12-29T01:54:24;9.90;99.90
16408;DHT22;8313;49.894;8.084;2022-12-29T01:56:55;9.90;99.90
16408;DHT22;8313;49.894;8.084;2022-12-29T01:59:26;9.90;99.90
16408;DHT22;8313;49.894;8.084;2022-12-29T02:01:54;9.90;99.90
16408;DHT22;8313;49.894;8.084;2022-12-29T02:04:20;9.90;99.90
16408;DHT22;8313;49.894;8.084;2022-12-29T02:07:05;9.90;99.90
16408;DHT22;8313;49.894;8.084;2022-12-29T02:09:33;9.90;99.90
16408;DHT22;8313;49.894;8.084;2022-12-29T02:11:59;9.90;99.90
16408;DHT22;8313;49.894;8.084;2022-12-29T02:14:26;9.90;99.90
16408;DHT22;8313;49.894;8.084;2022-12-29T02:17:16;9.90;99.90
16408;DHT22;8313;49.894;8.084;2022-12-29T02:22:49;9.90;99.90
16408;DHT22;8313;49.894;8.084;2022-12-29T02:35:44;9.90;99.90
16408;DHT22;8313;49.894;8.084;2022-12-29T02:38:46;10.00;99.90
16408;DHT22;8313;49.894;8.084;2022-12-29T02:41:31;10.00;99.90
16408;DHT22;8313;49.894;8.084;2022-12-29T02:44:20;10.00;99.90
16408;DHT22;8313;49.894;8.084;2022-12-29T02:46:58;10.00;99.90
16408;DHT22;8313;49.894;8.084;2022-12-29T02:50:03;10.00;99.90
16408;DHT22;8313;49.894;8.084;2022-12-29T02:52:59;10.00;99.90
16408;DHT22;8313;49.894;8.084;2022-12-29T02:55:25;10.00;99.90
16408;DHT22;8313;49.894;8.084;2022-12-29T02:58:15;10.10;99.90
16408;DHT22;8313;49.894;8.084;2022-12-29T03:03:46;10.00;99.90
16408;DHT22;8313;49.894;8.084;2022-12-29T03:11:19;10.10;99.90
16408;DHT22;8313;49.894;8.084;2022-12-29T03:14:30;10.10;99.90
16408;DHT22;8313;49.894;8.084;2022-12-29T03:20:01;10.10;99.90
16408;DHT22;8313;49.894;8.084;2022-12-29T03:22:30;10.10;99.90
16408;DHT22;8313;49.894;8.084;2022-12-29T03:27:46;10.10;99.90
16408;DHT22;8313;49.894;8.084;2022-12-29T03:30:13;10.10;99.90
16408;DHT22;8313;49.894;8.084;2022-12-29T03:32:44;10.10;99.90
16408;DHT22;8313;49.894;8.084;2022-12-29T03:35:16;10.10;99.90
16408;DHT22;8313;49.894;8.084;2022-12-29T03:37:50;10.10;99.90
16408;DHT22;8313;49.894;8.084;2022-12-29T03:40:18;10.20;99.90
16408;DHT22;8313;49.894;8.084;2022-12-29T03:42:46;10.10;99.90
16408;DHT22;8313;49.894;8.084;2022-12-29T03:45:13;10.10;99.90
16408;DHT22;8313;49.894;8.084;2022-12-29T03:47:39;10.10;99.90
16408;DHT22;8313;49.894;8.084;2022-12-29T03:50:06;10.10;99.90
16408;DHT22;8313;49.894;8.084;2022-12-29T03:52:38;10.10;99.90
16408;DHT22;8313;49.894;8.084;2022-12-29T03:55:06;10.10;99.90
16408;DHT22;8313;49.894;8.084;2022-12-29T03:57:31;10.20;99.90
16408;DHT22;8313;49.894;8.084;2022-12-29T04:00:02;10.20;99.90
16408;DHT22;8313;49.894;8.084;2022-12-29T04:02:29;10.20;99.90
16408;DHT22;8313;49.894;8.084;2022-12-29T04:04:55;10.10;99.90
16408;DHT22;8313;49.894;8.084;2022-12-29T04:07:22;10.10;99.90
16408;DHT22;8313;49.894;8.084;2022-12-29T04:09:51;10.20;99.90
16408;DHT22;8313;49.894;8.084;2022-12-29T04:12:21;10.20;99.90
16408;DHT22;8313;49.894;8.084;2022-12-29T04:14:46;10.20;99.90
16408;DHT22;8313;49.894;8.084;2022-12-29T04:17:12;10.20;99.90
16408;DHT22;8313;49.894;8.084;2022-12-29T04:19:39;10.20;99.90
16408;DHT22;8313;49.894;8.084;2022-12-29T04:22:05;10.20;99.90
16408;DHT22;8313;49.894;8.084;2022-12-29T04:24:31;10.20;99.90
16408;DHT22;8313;49.894;8.084;2022-12-29T04:26:57;10.30;99.90
16408;DHT22;8313;49.894;8.084;2022-12-29T04:29:43;10.20;99.90
16408;DHT22;8313;49.894;8.084;2022-12-29T04:32:23;10.20;99.90
16408;DHT22;8313;49.894;8.084;2022-12-29T04:34:52;10.20;99.90
16408;DHT22;8313;49.894;8.084;2022-12-29T04:37:18;10.20;99.90
16408;DHT22;8313;49.894;8.084;2022-12-29T04:39:44;10.20;99.90
16408;DHT22;8313;49.894;8.084;2022-12-29T04:42:10;10.20;99.90
16408;DHT22;8313;49.894;8.084;2022-12-29T04:44:36;10.20;99.90
16408;DHT22;8313;49.894;8.084;2022-12-29T04:47:20;10.20;99.90
16408;DHT22;8313;49.894;8.084;2022-12-29T04:50:12;10.20;99.90
16408;DHT22;8313;49.894;8.084;2022-12-29T04:52:53;10.20;99.90
16408;DHT22;8313;49.894;8.084;2022-12-29T04:55:19;10.20;99.90
16408;DHT22;8313;49.894;8.084;2022-12-29T04:57:44;10.20;99.90
16408;DHT22;8313;49.894;8.084;2022-12-29T05:00:14;10.20;99.90
16408;DHT22;8313;49.894;8.084;2022-12-29T05:02:40;10.20;99.90
16408;DHT22;8313;49.894;8.084;2022-12-29T05:05:06;10.20;99.90
16408;DHT22;8313;49.894;8.084;2022-12-29T05:07:34;10.20;99.90
16408;DHT22;8313;49.894;8.084;2022-12-29T05:10:00;10.20;99.90
16408;DHT22;8313;49.894;8.084;2022-12-29T05:12:30;10.20;99.90
16408;DHT22;8313;49.894;8.084;2022-12-29T05:14:59;10.20;99.90
16408;DHT22;8313;49.894;8.084;2022-12-29T05:17:25;10.20;99.90
16408;DHT22;8313;49.894;8.084;2022-12-29T05:19:52;10.20;99.90
16408;DHT22;8313;49.894;8.084;2022-12-29T05:22:18;10.20;99.90
16408;DHT22;8313;49.894;8.084;2022-12-29T05:24:43;10.20;99.90
16408;DHT22;8313;49.894;8.084;2022-12-29T05:27:10;10.20;99.90
16408;DHT22;8313;49.894;8.084;2022-12-29T05:29:58;10.20;99.90
16408;DHT22;8313;49.894;8.084;2022-12-29T05:32:24;10.20;99.90
16408;DHT22;8313;49.894;8.084;2022-12-29T05:34:50;10.20;99.90
16408;DHT22;8313;49.894;8.084;2022-12-29T05:37:17;10.20;99.90
16408;DHT22;8313;49.894;8.084;2022-12-29T05:39:43;10.20;99.90
16408;DHT22;8313;49.894;8.084;2022-12-29T05:42:09;10.30;99.90
16408;DHT22;8313;49.894;8.084;2022-12-29T05:44:46;10.30;99.90
16408;DHT22;8313;49.894;8.084;2022-12-29T05:47:45;10.30;99.90
16408;DHT22;8313;49.894;8.084;2022-12-29T05:50:42;10.30;99.90
16408;DHT22;8313;49.894;8.084;2022-12-29T05:53:12;10.30;99.90
16408;DHT22;8313;49.894;8.084;2022-12-29T05:55:38;10.30;99.90
16408;DHT22;8313;49.894;8.084;2022-12-29T05:58:04;10.30;99.90
16408;DHT22;8313;49.894;8.084;2022-12-29T06:00:30;10.30;99.90
16408;DHT22;8313;49.894;8.084;2022-12-29T06:02:57;10.30;99.90
16408;DHT22;8313;49.894;8.084;2022-12-29T06:05:23;10.30;99.90
16408;DHT22;8313;49.894;8.084;2022-12-29T06:07:49;10.30;99.90
16408;DHT22;8313;49.894;8.084;2022-12-29T06:10:16;10.40;99.90
16408;DHT22;8313;49.894;8.084;2022-12-29T06:12:46;10.30;99.90
16408;DHT22;8313;49.894;8.084;2022-12-29T06:15:13;10.30;99.90
16408;DHT22;8313;49.894;8.084;2022-12-29T06:17:40;10.40;99.90
16408;DHT22;8313;49.894;8.084;2022-12-29T06:20:07;10.40;99.90
16408;DHT22;8313;49.894;8.084;2022-12-29T06:22:33;10.40;99.90
16408;DHT22;8313;49.894;8.084;2022-12-29T06:25:00;10.40;99.90
16408;DHT22;8313;49.894;8.084;2022-12-29T06:27:27;10.30;99.90
16408;DHT22;8313;49.894;8.084;2022-12-29T06:29:53;10.40;99.90
16408;DHT22;8313;49.894;8.084;2022-12-29T06:32:18;10.40;99.90
16408;DHT22;8313;49.894;8.084;2022-12-29T06:34:49;10.30;99.90
16408;DHT22;8313;49.894;8.084;2022-12-29T06:37:15;10.40;99.90
16408;DHT22;8313;49.894;8.084;2022-12-29T06:39:40;10.40;99.90
16408;DHT22;8313;49.894;8.084;2022-12-29T06:42:10;10.40;99.90
16408;DHT22;8313;49.894;8.084;2022-12-29T06:44:55;10.40;99.90
16408;DHT22;8313;49.894;8.084;2022-12-29T06:47:24;10.40;99.90
16408;DHT22;8313;49.894;8.084;2022-12-29T06:49:49;10.40;99.90
16408;DHT22;8313;49.894;8.084;2022-12-29T06:52:15;10.40;99.90
16408;DHT22;8313;49.894;8.084;2022-12-29T06:54:41;10.40;99.90
16408;DHT22;8313;49.894;8.084;2022-12-29T06:57:06;10.40;99.90
16408;DHT22;8313;49.894;8.084;2022-12-29T06:59:32;10.40;99.90
16408;DHT22;8313;49.894;8.084;2022-12-29T07:01:58;10.50;99.90
16408;DHT22;8313;49.894;8.084;2022-12-29T07:04:24;10.50;99.90
16408;DHT22;8313;49.894;8.084;2022-12-29T07:06:49;10.40;99.90
16408;DHT22;8313;49.894;8.084;2022-12-29T07:09:15;10.40;99.90
16408;DHT22;8313;49.894;8.084;2022-12-29T07:11:41;10.40;99.90
16408;DHT22;8313;49.894;8.084;2022-12-29T07:14:06;10.40;99.90
16408;DHT22;8313;49.894;8.084;2022-12-29T07:16:32;10.40;99.90
16408;DHT22;8313;49.894;8.084;2022-12-29T07:18:59;10.40;99.90
16408;DHT22;8313;49.894;8.084;2022-12-29T07:21:25;10.40;99.90
16408;DHT22;8313;49.894;8.084;2022-12-29T07:23:51;10.40;99.90
16408;DHT22;8313;49.894;8.084;2022-12-29T07:26:16;10.40;99.90
16408;DHT22;8313;49.894;8.084;2022-12-29T07:28:43;10.40;99.90
16408;DHT22;8313;49.894;8.084;2022-12-29T07:31:17;10.40;99.90
16408;DHT22;8313;49.894;8.084;2022-12-29T07:33:44;10.40;99.90
16408;DHT22;8313;49.894;8.084;2022-12-29T07:36:11;10.40;99.90
16408;DHT22;8313;49.894;8.084;2022-12-29T07:38:37;10.40;99.90
16408;DHT22;8313;49.894;8.084;2022-12-29T07:41:03;10.40;99.90
16408;DHT22;8313;49.894;8.084;2022-12-29T07:43:28;10.40;99.90
16408;DHT22;8313;49.894;8.084;2022-12-29T07:46:14;10.40;99.90
16408;DHT22;8313;49.894;8.084;2022-12-29T07:48:39;10.40;99.90
16408;DHT22;8313;49.894;8.084;2022-12-29T07:51:05;10.40;99.90
16408;DHT22;8313;49.894;8.084;2022-12-29T07:53:31;10.40;99.90
16408;DHT22;8313;49.894;8.084;2022-12-29T07:55:57;10.40;99.90
16408;DHT22;8313;49.894;8.084;2022-12-29T07:58:23;10.40;99.90
16408;DHT22;8313;49.894;8.084;2022-12-29T08:00:56;10.40;99.90
16408;DHT22;8313;49.894;8.084;2022-12-29T08:03:22;10.40;99.90
16408;DHT22;8313;49.894;8.084;2022-12-29T08:05:48;10.40;99.90
16408;DHT22;8313;49.894;8.084;2022-12-29T08:08:14;10.40;99.90
16408;DHT22;8313;49.894;8.084;2022-12-29T08:10:40;10.40;99.90
16408;DHT22;8313;49.894;8.084;2022-12-29T08:13:06;10.40;99.90
16408;DHT22;8313;49.894;8.084;2022-12-29T08:15:31;10.40;99.90
16408;DHT22;8313;49.894;8.084;2022-12-29T08:17:57;10.40;99.90
16408;DHT22;8313;49.894;8.084;2022-12-29T08:20:23;10.40;99.90
16408;DHT22;8313;49.894;8.084;2022-12-29T08:22:49;10.40;99.90
16408;DHT22;8313;49.894;8.084;2022-12-29T08:25:15;10.40;99.90
16408;DHT22;8313;49.894;8.084;2022-12-29T08:27:41;10.40;99.90
16408;DHT22;8313;49.894;8.084;2022-12-29T08:30:08;10.40;99.90
16408;DHT22;8313;49.894;8.084;2022-12-29T08:32:34;10.40;99.90
16408;DHT22;8313;49.894;8.084;2022-12-29T08:34:59;10.40;99.90
16408;DHT22;8313;49.894;8.084;2022-12-29T08:37:26;10.40;99.90
16408;DHT22;8313;49.894;8.084;2022-12-29T08:39:51;10.40;99.90
16408;DHT22;8313;49.894;8.084;2022-12-29T08:42:17;10.40;99.90
16408;DHT22;8313;49.894;8.084;2022-12-29T08:44:43;10.40;99.90
16408;DHT22;8313;49.894;8.084;2022-12-29T08:47:10;10.40;99.90
16408;DHT22;8313;49.894;8.084;2022-12-29T08:49:36;10.40;99.90
16408;DHT22;8313;49.894;8.084;2022-12-29T08:52:03;10.40;99.90
16408;DHT22;8313;49.894;8.084;2022-12-29T08:54:29;10.40;99.90
16408;DHT22;8313;49.894;8.084;2022-12-29T08:56:54;10.40;99.90
16408;DHT22;8313;49.894;8.084;2022-12-29T08:59:23;10.40;99.90
16408;DHT22;8313;49.894;8.084;2022-12-29T09:01:49;10.40;99.90
16408;DHT22;8313;49.894;8.084;2022-12-29T09:04:15;10.40;99.90
16408;DHT22;8313;49.894;8.084;2022-12-29T09:06:41;10.40;99.90
16408;DHT22;8313;49.894;8.084;2022-12-29T09:09:07;10.40;99.90
16408;DHT22;8313;49.894;8.084;2022-12-29T09:11:32;10.40;99.90
16408;DHT22;8313;49.894;8.084;2022-12-29T09:13:58;10.40;99.90
16408;DHT22;8313;49.894;8.084;2022-12-29T09:16:24;10.30;99.90
16408;DHT22;8313;49.894;8.084;2022-12-29T09:18:50;10.30;99.90
16408;DHT22;8313;49.894;8.084;2022-12-29T09:21:16;10.30;99.90
16408;DHT22;8313;49.894;8.084;2022-12-29T09:23:42;10.30;99.90
16408;DHT22;8313;49.894;8.084;2022-12-29T09:26:08;10.40;99.90
16408;DHT22;8313;49.894;8.084;2022-12-29T09:28:34;10.40;99.90
16408;DHT22;8313;49.894;8.084;2022-12-29T09:31:00;10.30;99.90
16408;DHT22;8313;49.894;8.084;2022-12-29T09:33:26;10.30;99.90
16408;DHT22;8313;49.894;8.084;2022-12-29T09:35:55;10.30;99.90
16408;DHT22;8313;49.894;8.084;2022-12-29T09:38:21;10.40;99.90
16408;DHT22;8313;49.894;8.084;2022-12-29T09:40:56;10.30;99.90
16408;DHT22;8313;49.894;8.084;2022-12-29T09:43:46;10.30;99.90
16408;DHT22;8313;49.894;8.084;2022-12-29T09:46:29;10.20;99.90
16408;DHT22;8313;49.894;8.084;2022-12-29T09:51:52;10.20;99.90
16408;DHT22;8313;49.894;8.084;2022-12-29T09:56:52;10.10;99.90
16408;DHT22;8313;49.894;8.084;2022-12-29T09:59:20;10.10;99.90
16408;DHT22;8313;49.894;8.084;2022-12-29T10:02:04;10.00;99.90
16408;DHT22;8313;49.894;8.084;2022-12-29T10:04:44;10.10;99.90
16408;DHT22;8313;49.894;8.084;2022-12-29T10:10:07;10.00;99.90
16408;DHT22;8313;49.894;8.084;2022-12-29T10:13:00;10.00;99.90
16408;DHT22;8313;49.894;8.084;2022-12-29T10:23:53;10.00;99.90
16408;DHT22;8313;49.894;8.084;2022-12-29T10:26:31;10.10;99.90
16408;DHT22;8313;49.894;8.084;2022-12-29T10:29:04;10.10;99.90
16408;DHT22;8313;49.894;8.084;2022-12-29T10:32:00;10.10;99.90
16408;DHT22;8313;49.894;8.084;2022-12-29T10:34:29;10.10;99.90
16408;DHT22;8313;49.894;8.084;2022-12-29T10:37:00;10.10;99.90
16408;DHT22;8313;49.894;8.084;2022-12-29T10:39:40;10.10;99.90
16408;DHT22;8313;49.894;8.084;2022-12-29T10:45:00;10.10;99.90
16408;DHT22;8313;49.894;8.084;2022-12-29T10:47:35;10.20;99.90
16408;DHT22;8313;49.894;8.084;2022-12-29T10:50:02;10.20;99.90
16408;DHT22;8313;49.894;8.084;2022-12-29T10:52:31;10.30;99.90
16408;DHT22;8313;49.894;8.084;2022-12-29T10:55:11;10.30;99.90
16408;DHT22;8313;49.894;8.084;2022-12-29T10:57:44;10.40;99.90
16408;DHT22;8313;49.894;8.084;2022-12-29T11:00:23;10.40;99.90
16408;DHT22;8313;49.894;8.084;2022-12-29T11:06:01;10.50;99.90
16408;DHT22;8313;49.894;8.084;2022-12-29T11:08:35;10.50;99.90
16408;DHT22;8313;49.894;8.084;2022-12-29T11:11:07;10.50;99.90
16408;DHT22;8313;49.894;8.084;2022-12-29T11:13:35;10.50;99.90
16408;DHT22;8313;49.894;8.084;2022-12-29T11:16:12;10.60;99.90
16408;DHT22;8313;49.894;8.084;2022-12-29T11:18:39;10.60;99.90
16408;DHT22;8313;49.894;8.084;2022-12-29T11:21:23;10.60;99.90
16408;DHT22;8313;49.894;8.084;2022-12-29T11:24:04;10.60;99.90
16408;DHT22;8313;49.894;8.084;2022-12-29T11:26:31;10.60;99.90
16408;DHT22;8313;49.894;8.084;2022-12-29T11:29:39;10.70;99.90
16408;DHT22;8313;49.894;8.084;2022-12-29T11:34:44;10.60;99.90
16408;DHT22;8313;49.894;8.084;2022-12-29T11:39:58;10.70;99.90
16408;DHT22;8313;49.894;8.084;2022-12-29T11:45:26;10.70;99.90
16408;DHT22;8313;49.894;8.084;2022-12-29T11:47:57;10.70;99.90
16408;DHT22;8313;49.894;8.084;2022-12-29T11:50:28;10.70;99.90
16408;DHT22;8313;49.894;8.084;2022-12-29T11:53:14;10.70;99.90
16408;DHT22;8313;49.894;8.084;2022-12-29T11:55:40;10.70;99.90
16408;DHT22;8313;49.894;8.084;2022-12-29T11:58:16;10.70;99.90
16408;DHT22;8313;49.894;8.084;2022-12-29T12:00:42;10.70;99.90
16408;DHT22;8313;49.894;8.084;2022-12-29T12:03:21;10.70;99.90
16408;DHT22;8313;49.894;8.084;2022-12-29T12:06:00;10.70;99.90
16408;DHT22;8313;49.894;8.084;2022-12-29T12:11:10;10.70;99.90
16408;DHT22;8313;49.894;8.084;2022-12-29T12:16:32;10.70;99.90
16408;DHT22;8313;49.894;8.084;2022-12-29T12:21:55;10.80;99.90
16408;DHT22;8313;49.894;8.084;2022-12-29T12:24:52;10.80;99.90
16408;DHT22;8313;49.894;8.084;2022-12-29T12:38:06;10.70;99.90
16408;DHT22;8313;49.894;8.084;2022-12-29T12:43:39;10.90;99.90
16408;DHT22;8313;49.894;8.084;2022-12-29T12:51:37;10.90;99.90
16408;DHT22;8313;49.894;8.084;2022-12-29T12:54:12;10.90;99.90
16408;DHT22;8313;49.894;8.084;2022-12-29T13:01:41;10.90;99.90
16408;DHT22;8313;49.894;8.084;2022-12-29T13:07:48;11.00;99.90
16408;DHT22;8313;49.894;8.084;2022-12-29T13:10:39;11.00;99.90
16408;DHT22;8313;49.894;8.084;2022-12-29T13:13:31;11.00;99.90
16408;DHT22;8313;49.894;8.084;2022-12-29T13:24:56;11.00;99.90
16408;DHT22;8313;49.894;8.084;2022-12-29T13:30:08;11.00;99.90
16408;DHT22;8313;49.894;8.084;2022-12-29T13:37:55;11.00;99.90
16408;DHT22;8313;49.894;8.084;2022-12-29T13:40:27;11.00;99.90
16408;DHT22;8313;49.894;8.084;2022-12-29T13:42:55;11.00;99.90
16408;DHT22;8313;49.894;8.084;2022-12-29T13:45:24;10.90;99.90
16408;DHT22;8313;49.894;8.084;2022-12-29T13:50:40;10.90;99.90
16408;DHT22;8313;49.894;8.084;2022-12-29T13:53:35;10.90;99.90
16408;DHT22;8313;49.894;8.084;2022-12-29T13:56:09;10.80;99.90
16408;DHT22;8313;49.894;8.084;2022-12-29T14:04:03;10.90;99.90
16408;DHT22;8313;49.894;8.084;2022-12-29T14:06:35;10.90;99.90
16408;DHT22;8313;49.894;8.084;2022-12-29T14:12:00;10.90;99.90
16408;DHT22;8313;49.894;8.084;2022-12-29T14:14:29;10.90;99.90
16408;DHT22;8313;49.894;8.084;2022-12-29T14:17:09;10.90;99.90
16408;DHT22;8313;49.894;8.084;2022-12-29T14:19:41;10.90;99.90
16408;DHT22;8313;49.894;8.084;2022-12-29T14:22:10;10.90;99.90
16408;DHT22;8313;49.894;8.084;2022-12-29T14:34:58;10.70;99.90
16408;DHT22;8313;49.894;8.084;2022-12-29T14:40:18;10.70;99.90
16408;DHT22;8313;49.894;8.084;2022-12-29T14:42:45;10.70;99.90
16408;DHT22;8313;49.894;8.084;2022-12-29T14:47:45;10.60;99.90
16408;DHT22;8313;49.894;8.084;2022-12-29T14:58:07;10.50;99.90
16408;DHT22;8313;49.894;8.084;2022-12-29T15:00:38;10.50;99.90
16408;DHT22;8313;49.894;8.084;2022-12-29T15:03:20;10.50;99.90
16408;DHT22;8313;49.894;8.084;2022-12-29T15:05:57;10.50;99.90
16408;DHT22;8313;49.894;8.084;2022-12-29T15:08:26;10.50;99.90
16408;DHT22;8313;49.894;8.084;2022-12-29T15:10:57;10.50;99.90
16408;DHT22;8313;49.894;8.084;2022-12-29T15:13:36;10.40;99.90
16408;DHT22;8313;49.894;8.084;2022-12-29T15:16:02;10.40;99.90
16408;DHT22;8313;49.894;8.084;2022-12-29T15:18:30;10.40;99.90
16408;DHT22;8313;49.894;8.084;2022-12-29T15:21:06;10.40;99.90
16408;DHT22;8313;49.894;8.084;2022-12-29T15:23:36;10.40;99.90
16408;DHT22;8313;49.894;8.084;2022-12-29T15:26:05;10.40;99.90
16408;DHT22;8313;49.894;8.084;2022-12-29T15:28:43;10.30;99.90
16408;DHT22;8313;49.894;8.084;2022-12-29T15:31:31;10.30;99.90
16408;DHT22;8313;49.894;8.084;2022-12-29T15:34:11;10.30;99.90
16408;DHT22;8313;49.894;8.084;2022-12-29T15:36:39;10.30;99.90
16408;DHT22;8313;49.894;8.084;2022-12-29T15:39:20;10.30;99.90
16408;DHT22;8313;49.894;8.084;2022-12-29T15:44:41;10.20;99.90
16408;DHT22;8313;49.894;8.084;2022-12-29T15:49:48;10.10;99.90
16408;DHT22;8313;49.894;8.084;2022-12-29T15:52:20;10.10;99.90
16408;DHT22;8313;49.894;8.084;2022-12-29T15:54:48;10.00;99.90
16408;DHT22;8313;49.894;8.084;2022-12-29T15:59:51;10.10;99.90
16408;DHT22;8313;49.894;8.084;2022-12-29T16:02:20;10.00;99.90
16408;DHT22;8313;49.894;8.084;2022-12-29T16:04:47;9.90;99.90
16408;DHT22;8313;49.894;8.084;2022-12-29T16:07:30;9.80;99.90
16408;DHT22;8313;49.894;8.084;2022-12-29T16:09:59;9.80;99.90
16408;DHT22;8313;49.894;8.084;2022-12-29T16:12:31;9.80;99.90
16408;DHT22;8313;49.894;8.084;2022-12-29T16:14:57;9.80;99.90
16408;DHT22;8313;49.894;8.084;2022-12-29T16:17:26;9.70;99.90
16408;DHT22;8313;49.894;8.084;2022-12-29T16:20:06;9.70;99.90
16408;DHT22;8313;49.894;8.084;2022-12-29T16:22:41;9.60;99.90
16408;DHT22;8313;49.894;8.084;2022-12-29T16:25:35;9.70;99.90
16408;DHT22;8313;49.894;8.084;2022-12-29T16:28:16;9.70;99.90
16408;DHT22;8313;49.894;8.084;2022-12-29T16:30:42;9.70;99.90
16408;DHT22;8313;49.894;8.084;2022-12-29T16:33:46;9.70;99.90
16408;DHT22;8313;49.894;8.084;2022-12-29T16:36:28;9.70;99.90
16408;DHT22;8313;49.894;8.084;2022-12-29T16:39:20;9.60;99.90
16408;DHT22;8313;49.894;8.084;2022-12-29T16:41:50;9.50;99.90
16408;DHT22;8313;49.894;8.084;2022-12-29T16:49:30;9.30;99.90
16408;DHT22;8313;49.894;8.084;2022-12-29T16:51:57;9.30;99.90
16408;DHT22;8313;49.894;8.084;2022-12-29T16:54:35;9.30;99.90
16408;DHT22;8313;49.894;8.084;2022-12-29T16:57:02;9.20;99.90
16408;DHT22;8313;49.894;8.084;2022-12-29T17:01:59;9.20;99.90
16408;DHT22;8313;49.894;8.084;2022-12-29T17:04:26;9.20;99.90
16408;DHT22;8313;49.894;8.084;2022-12-29T17:06:51;9.20;99.90
16408;DHT22;8313;49.894;8.084;2022-12-29T17:09:25;9.10;99.90
16408;DHT22;8313;49.894;8.084;2022-12-29T17:11:54;9.10;99.90
16408;DHT22;8313;49.894;8.084;2022-12-29T17:19:47;9.10;99.90
16408;DHT22;8313;49.894;8.084;2022-12-29T17:22:20;9.10;99.90
16408;DHT22;8313;49.894;8.084;2022-12-29T17:24:46;9.10;99.90
16408;DHT22;8313;49.894;8.084;2022-12-29T17:29:49;9.20;99.90
16408;DHT22;8313;49.894;8.084;2022-12-29T17:32:16;9.20;99.90
16408;DHT22;8313;49.894;8.084;2022-12-29T17:34:42;9.20;99.90
16408;DHT22;8313;49.894;8.084;2022-12-29T17:37:28;9.30;99.90
16408;DHT22;8313;49.894;8.084;2022-12-29T17:39:54;9.30;99.90
16408;DHT22;8313;49.894;8.084;2022-12-29T17:42:20;9.30;99.90
16408;DHT22;8313;49.894;8.084;2022-12-29T17:44:46;9.30;99.90
16408;DHT22;8313;49.894;8.084;2022-12-29T17:47:11;9.40;99.90
16408;DHT22;8313;49.894;8.084;2022-12-29T17:49:37;9.40;99.90
16408;DHT22;8313;49.894;8.084;2022-12-29T17:52:03;9.40;99.90
16408;DHT22;8313;49.894;8.084;2022-12-29T17:54:30;9.40;99.90
16408;DHT22;8313;49.894;8.084;2022-12-29T17:56:56;9.40;99.90
16408;DHT22;8313;49.894;8.084;2022-12-29T17:59:22;9.40;99.90
16408;DHT22;8313;49.894;8.084;2022-12-29T18:01:48;9.40;99.90
16408;DHT22;8313;49.894;8.084;2022-12-29T18:04:17;9.30;99.90
16408;DHT22;8313;49.894;8.084;2022-12-29T18:06:43;9.20;99.90
16408;DHT22;8313;49.894;8.084;2022-12-29T18:09:09;9.10;99.90
16408;DHT22;8313;49.894;8.084;2022-12-29T18:11:40;9.10;99.90
16408;DHT22;8313;49.894;8.084;2022-12-29T18:14:13;9.10;99.90
16408;DHT22;8313;49.894;8.084;2022-12-29T18:16:39;9.00;99.90
16408;DHT22;8313;49.894;8.084;2022-12-29T18:19:05;9.00;99.90
16408;DHT22;8313;49.894;8.084;2022-12-29T18:21:31;9.00;99.90
16408;DHT22;8313;49.894;8.084;2022-12-29T18:23:57;9.00;99.90
16408;DHT22;8313;49.894;8.084;2022-12-29T18:26:25;9.00;99.90
16408;DHT22;8313;49.894;8.084;2022-12-29T18:28:53;9.00;99.90
16408;DHT22;8313;49.894;8.084;2022-12-29T18:33:50;8.90;99.90
16408;DHT22;8313;49.894;8.084;2022-12-29T18:36:17;8.90;99.90
16408;DHT22;8313;49.894;8.084;2022-12-29T18:38:43;8.80;99.90
16408;DHT22;8313;49.894;8.084;2022-12-29T18:41:20;8.80;99.90
16408;DHT22;8313;49.894;8.084;2022-12-29T18:43:47;8.80;99.90
16408;DHT22;8313;49.894;8.084;2022-12-29T18:46:13;8.70;99.90
16408;DHT22;8313;49.894;8.084;2022-12-29T18:48:40;8.60;99.90
16408;DHT22;8313;49.894;8.084;2022-12-29T18:51:06;8.60;99.90
16408;DHT22;8313;49.894;8.084;2022-12-29T18:53:38;8.60;99.90
16408;DHT22;8313;49.894;8.084;2022-12-29T18:56:04;8.60;99.90
16408;DHT22;8313;49.894;8.084;2022-12-29T18:58:31;8.50;99.90
16408;DHT22;8313;49.894;8.084;2022-12-29T19:00:57;8.50;99.90
16408;DHT22;8313;49.894;8.084;2022-12-29T19:03:23;8.60;99.90
16408;DHT22;8313;49.894;8.084;2022-12-29T19:05:49;8.50;99.90
16408;DHT22;8313;49.894;8.084;2022-12-29T19:08:15;8.50;99.90
16408;DHT22;8313;49.894;8.084;2022-12-29T19:10:41;8.50;99.90
16408;DHT22;8313;49.894;8.084;2022-12-29T19:13:19;8.50;99.90